Fryeburg, Maine
Current Conditions -  °F | °C
As of 11:54 AM on Wednesday 22 Oct 2014 (Local Time) from KIZG Reporting Station
Light Rain Light Rain  
Wind Chill: 43°   Ceiling: 1800
Heat Index: 47°   Visibility: 10mi
Dew Point: 44°   Wind: 9mph
Humidity: 90%   Direction: 350°N
Pressure: 30.16"   Gusts: NA
Location:  44.02°N, 70.98°W
Report Text: KIZG 221554Z AUTO 35008KT 10SM -RA OVC018 08/07 A3016 RMK AO2 SLP216 P0001 T00830067
Loading
Personal Weather Stations






























Interactive Weather Map New forecast layout! Learn more

10-Day Weather Forecast

Advertisements
Track Severe Weather on mobile